Terminal Aerodrome Forecast
Issued by NWS Wilmington, NC

Current Version | Previous Version | Text Only | Print | Product List | Glossary On
Versions: 1 2 3 4 5 6 7 8 9 10 11 12 13 14 15
309
FTUS42 KILM 270539
TAFFLO
TAF
KFLO 270539Z 2706/2806 16003KT P6SM FEW080
      TEMPO 2709/2713 2SM BR
     FM271300 18004KT P6SM BKN060 PROB30 2718/2720 4SM -SHRA OVC025
     FM280000 20005KT P6SM SCT025
     FM280400 18005KT P6SM SCT003=

USA.gov is the U.S. government's official web portal to all federal, state and local government web resources and services.